sensor_id;sensor_type;location;lat;lon;timestamp;pressure;altitude;pressure_sealevel;temperature;humidity
32083;BME280;18597;48.328;7.932;2023-12-04T00:01:21;99718.78;;;-6.04;100.00
32083;BME280;18597;48.328;7.932;2023-12-04T00:03:47;99713.72;;;-6.11;100.00
32083;BME280;18597;48.328;7.932;2023-12-04T00:06:13;99714.25;;;-5.93;100.00
32083;BME280;18597;48.328;7.932;2023-12-04T00:08:39;99703.38;;;-5.68;100.00
32083;BME280;18597;48.328;7.932;2023-12-04T00:11:06;99701.31;;;-5.51;100.00
32083;BME280;18597;48.328;7.932;2023-12-04T00:13:32;99690.94;;;-5.54;100.00
32083;BME280;18597;48.328;7.932;2023-12-04T00:15:59;99689.75;;;-5.36;100.00
32083;BME280;18597;48.328;7.932;2023-12-04T00:18:25;99675.59;;;-5.24;100.00
32083;BME280;18597;48.328;7.932;2023-12-04T00:20:51;99670.03;;;-5.08;100.00
32083;BME280;18597;48.328;7.932;2023-12-04T00:23:17;99664.16;;;-5.17;100.00
32083;BME280;18597;48.328;7.932;2023-12-04T00:25:43;99660.66;;;-5.16;100.00
32083;BME280;18597;48.328;7.932;2023-12-04T00:28:09;99652.66;;;-5.06;100.00
32083;BME280;18597;48.328;7.932;2023-12-04T00:30:35;99643.16;;;-5.10;100.00
32083;BME280;18597;48.328;7.932;2023-12-04T00:33:01;99637.88;;;-5.07;100.00
32083;BME280;18597;48.328;7.932;2023-12-04T00:35:26;99645.16;;;-5.22;100.00
32083;BME280;18597;48.328;7.932;2023-12-04T00:37:52;99649.81;;;-5.35;100.00
32083;BME280;18597;48.328;7.932;2023-12-04T00:40:18;99644.59;;;-5.37;100.00
32083;BME280;18597;48.328;7.932;2023-12-04T00:42:44;99661.47;;;-5.54;100.00
32083;BME280;18597;48.328;7.932;2023-12-04T00:45:10;99652.97;;;-5.64;100.00
32083;BME280;18597;48.328;7.932;2023-12-04T00:47:35;99635.84;;;-5.33;100.00
32083;BME280;18597;48.328;7.932;2023-12-04T00:50:01;99632.72;;;-5.48;100.00
32083;BME280;18597;48.328;7.932;2023-12-04T00:52:27;99623.44;;;-5.62;100.00
32083;BME280;18597;48.328;7.932;2023-12-04T00:54:53;99621.69;;;-5.61;100.00
32083;BME280;18597;48.328;7.932;2023-12-04T00:57:19;99627.44;;;-5.45;100.00
32083;BME280;18597;48.328;7.932;2023-12-04T00:59:46;99631.22;;;-5.62;100.00
32083;BME280;18597;48.328;7.932;2023-12-04T01:02:12;99618.28;;;-5.65;100.00
32083;BME280;18597;48.328;7.932;2023-12-04T01:04:40;99613.25;;;-5.72;100.00
32083;BME280;18597;48.328;7.932;2023-12-04T01:07:07;99619.50;;;-5.82;100.00
32083;BME280;18597;48.328;7.932;2023-12-04T01:09:35;99615.06;;;-5.77;100.00
32083;BME280;18597;48.328;7.932;2023-12-04T01:12:01;99611.34;;;-5.64;100.00
32083;BME280;18597;48.328;7.932;2023-12-04T01:14:28;99630.06;;;-5.47;100.00
32083;BME280;18597;48.328;7.932;2023-12-04T01:16:54;99622.59;;;-5.64;100.00
32083;BME280;18597;48.328;7.932;2023-12-04T01:19:19;99622.94;;;-5.82;100.00
32083;BME280;18597;48.328;7.932;2023-12-04T01:21:45;99624.13;;;-5.53;100.00
32083;BME280;18597;48.328;7.932;2023-12-04T01:24:11;99617.22;;;-5.54;100.00
32083;BME280;18597;48.328;7.932;2023-12-04T01:26:37;99617.38;;;-5.62;100.00
32083;BME280;18597;48.328;7.932;2023-12-04T01:29:03;99621.94;;;-5.75;100.00
32083;BME280;18597;48.328;7.932;2023-12-04T01:31:29;99631.50;;;-5.75;100.00
32083;BME280;18597;48.328;7.932;2023-12-04T01:33:55;99628.03;;;-5.76;100.00
32083;BME280;18597;48.328;7.932;2023-12-04T01:36:20;99624.41;;;-5.67;100.00
32083;BME280;18597;48.328;7.932;2023-12-04T01:38:46;99617.31;;;-5.61;100.00
32083;BME280;18597;48.328;7.932;2023-12-04T01:41:12;99614.19;;;-5.35;100.00
32083;BME280;18597;48.328;7.932;2023-12-04T01:43:38;99615.94;;;-5.35;100.00
32083;BME280;18597;48.328;7.932;2023-12-04T01:46:04;99605.06;;;-5.15;100.00
32083;BME280;18597;48.328;7.932;2023-12-04T01:48:30;99600.66;;;-5.12;100.00
32083;BME280;18597;48.328;7.932;2023-12-04T01:50:58;99596.59;;;-5.23;100.00
32083;BME280;18597;48.328;7.932;2023-12-04T01:53:25;99600.22;;;-5.31;100.00
32083;BME280;18597;48.328;7.932;2023-12-04T01:55:52;99592.91;;;-5.15;100.00
32083;BME280;18597;48.328;7.932;2023-12-04T01:58:18;99581.69;;;-5.17;100.00
32083;BME280;18597;48.328;7.932;2023-12-04T02:00:44;99582.88;;;-5.32;100.00
32083;BME280;18597;48.328;7.932;2023-12-04T02:03:10;99578.31;;;-5.22;100.00
32083;BME280;18597;48.328;7.932;2023-12-04T02:05:37;99573.09;;;-5.20;100.00
32083;BME280;18597;48.328;7.932;2023-12-04T02:08:03;99573.69;;;-5.48;100.00
32083;BME280;18597;48.328;7.932;2023-12-04T02:10:29;99581.78;;;-5.62;100.00
32083;BME280;18597;48.328;7.932;2023-12-04T02:12:55;99571.22;;;-5.54;100.00
32083;BME280;18597;48.328;7.932;2023-12-04T02:15:21;99566.91;;;-5.55;100.00
32083;BME280;18597;48.328;7.932;2023-12-04T02:17:47;99573.81;;;-5.54;100.00
32083;BME280;18597;48.328;7.932;2023-12-04T02:20:14;99562.09;;;-5.73;100.00
32083;BME280;18597;48.328;7.932;2023-12-04T02:22:40;99568.78;;;-5.62;100.00
32083;BME280;18597;48.328;7.932;2023-12-04T02:25:08;99555.53;;;-5.51;100.00
32083;BME280;18597;48.328;7.932;2023-12-04T02:27:45;99546.25;;;-5.24;100.00
32083;BME280;18597;48.328;7.932;2023-12-04T02:30:13;99546.50;;;-5.35;100.00
32083;BME280;18597;48.328;7.932;2023-12-04T02:32:46;99558.06;;;-5.48;100.00
32083;BME280;18597;48.328;7.932;2023-12-04T02:35:15;99557.41;;;-5.57;100.00
32083;BME280;18597;48.328;7.932;2023-12-04T02:37:42;99562.66;;;-5.59;100.00
32083;BME280;18597;48.328;7.932;2023-12-04T02:40:10;99546.75;;;-5.47;100.00
32083;BME280;18597;48.328;7.932;2023-12-04T02:42:36;99557.31;;;-5.14;100.00
32083;BME280;18597;48.328;7.932;2023-12-04T02:45:02;99553.44;;;-4.96;100.00
32083;BME280;18597;48.328;7.932;2023-12-04T02:47:28;99551.81;;;-5.02;100.00
32083;BME280;18597;48.328;7.932;2023-12-04T02:49:54;99541.91;;;-4.88;100.00
32083;BME280;18597;48.328;7.932;2023-12-04T02:52:19;99547.88;;;-4.83;100.00
32083;BME280;18597;48.328;7.932;2023-12-04T02:54:45;99547.41;;;-5.00;100.00
32083;BME280;18597;48.328;7.932;2023-12-04T02:57:11;99545.84;;;-5.06;100.00
32083;BME280;18597;48.328;7.932;2023-12-04T02:59:37;99545.03;;;-5.09;100.00
32083;BME280;18597;48.328;7.932;2023-12-04T03:02:03;99542.28;;;-5.03;100.00
32083;BME280;18597;48.328;7.932;2023-12-04T03:04:30;99535.06;;;-4.92;100.00
32083;BME280;18597;48.328;7.932;2023-12-04T03:06:56;99540.44;;;-4.98;100.00
32083;BME280;18597;48.328;7.932;2023-12-04T03:09:21;99534.38;;;-5.00;100.00
32083;BME280;18597;48.328;7.932;2023-12-04T03:11:47;99536.13;;;-5.00;100.00
32083;BME280;18597;48.328;7.932;2023-12-04T03:14:13;99544.94;;;-5.05;100.00
32083;BME280;18597;48.328;7.932;2023-12-04T03:16:39;99541.41;;;-5.02;100.00
32083;BME280;18597;48.328;7.932;2023-12-04T03:19:05;99533.47;;;-4.97;100.00
32083;BME280;18597;48.328;7.932;2023-12-04T03:21:31;99534.38;;;-4.98;100.00
32083;BME280;18597;48.328;7.932;2023-12-04T03:23:57;99531.72;;;-4.97;100.00
32083;BME280;18597;48.328;7.932;2023-12-04T03:26:23;99518.63;;;-4.94;100.00
32083;BME280;18597;48.328;7.932;2023-12-04T03:28:49;99524.72;;;-4.95;100.00
32083;BME280;18597;48.328;7.932;2023-12-04T03:31:14;99523.31;;;-4.72;100.00
32083;BME280;18597;48.328;7.932;2023-12-04T03:33:40;99524.06;;;-4.69;100.00
32083;BME280;18597;48.328;7.932;2023-12-04T03:36:07;99521.25;;;-4.61;100.00
32083;BME280;18597;48.328;7.932;2023-12-04T03:38:33;99527.31;;;-4.59;100.00
32083;BME280;18597;48.328;7.932;2023-12-04T03:40:58;99515.78;;;-4.51;100.00
32083;BME280;18597;48.328;7.932;2023-12-04T03:43:24;99506.41;;;-4.25;100.00
32083;BME280;18597;48.328;7.932;2023-12-04T03:45:50;99515.69;;;-4.48;100.00
32083;BME280;18597;48.328;7.932;2023-12-04T03:48:16;99513.97;;;-4.49;100.00
32083;BME280;18597;48.328;7.932;2023-12-04T03:50:42;99499.03;;;-4.42;100.00
32083;BME280;18597;48.328;7.932;2023-12-04T03:53:07;99505.31;;;-4.49;100.00
32083;BME280;18597;48.328;7.932;2023-12-04T03:55:33;99497.69;;;-4.57;100.00
32083;BME280;18597;48.328;7.932;2023-12-04T03:57:59;99488.06;;;-4.53;100.00
32083;BME280;18597;48.328;7.932;2023-12-04T04:00:25;99476.53;;;-4.46;100.00
32083;BME280;18597;48.328;7.932;2023-12-04T04:02:50;99480.63;;;-4.36;100.00
32083;BME280;18597;48.328;7.932;2023-12-04T04:05:16;99470.84;;;-4.28;100.00
32083;BME280;18597;48.328;7.932;2023-12-04T04:07:42;99471.47;;;-4.20;100.00
32083;BME280;18597;48.328;7.932;2023-12-04T04:10:08;99460.88;;;-4.13;100.00
32083;BME280;18597;48.328;7.932;2023-12-04T04:12:35;99458.00;;;-4.04;100.00
32083;BME280;18597;48.328;7.932;2023-12-04T04:15:01;99460.47;;;-4.00;100.00
32083;BME280;18597;48.328;7.932;2023-12-04T04:17:26;99458.34;;;-3.87;100.00
32083;BME280;18597;48.328;7.932;2023-12-04T04:19:53;99445.47;;;-3.93;100.00
32083;BME280;18597;48.328;7.932;2023-12-04T04:22:20;99448.19;;;-3.96;100.00
32083;BME280;18597;48.328;7.932;2023-12-04T04:24:47;99446.66;;;-4.03;100.00
32083;BME280;18597;48.328;7.932;2023-12-04T04:27:13;99439.78;;;-4.06;100.00
32083;BME280;18597;48.328;7.932;2023-12-04T04:29:39;99434.28;;;-3.97;100.00
32083;BME280;18597;48.328;7.932;2023-12-04T04:32:05;99433.56;;;-4.02;100.00
32083;BME280;18597;48.328;7.932;2023-12-04T04:34:32;99432.53;;;-3.96;100.00
32083;BME280;18597;48.328;7.932;2023-12-04T04:36:57;99433.06;;;-3.85;100.00
32083;BME280;18597;48.328;7.932;2023-12-04T04:39:23;99430.34;;;-3.82;100.00
32083;BME280;18597;48.328;7.932;2023-12-04T04:41:49;99427.63;;;-3.77;100.00
32083;BME280;18597;48.328;7.932;2023-12-04T04:44:15;99415.59;;;-3.83;100.00
32083;BME280;18597;48.328;7.932;2023-12-04T04:46:41;99424.34;;;-3.84;100.00
32083;BME280;18597;48.328;7.932;2023-12-04T04:49:06;99425.03;;;-3.79;100.00
32083;BME280;18597;48.328;7.932;2023-12-04T04:51:34;99422.41;;;-3.79;100.00
32083;BME280;18597;48.328;7.932;2023-12-04T04:54:01;99408.50;;;-3.78;100.00
32083;BME280;18597;48.328;7.932;2023-12-04T04:56:27;99406.69;;;-3.76;100.00
32083;BME280;18597;48.328;7.932;2023-12-04T04:58:53;99411.78;;;-3.73;100.00
32083;BME280;18597;48.328;7.932;2023-12-04T05:01:19;99409.06;;;-3.68;100.00
32083;BME280;18597;48.328;7.932;2023-12-04T05:03:44;99403.88;;;-3.70;100.00
32083;BME280;18597;48.328;7.932;2023-12-04T05:06:10;99398.75;;;-3.73;100.00
32083;BME280;18597;48.328;7.932;2023-12-04T05:08:36;99396.97;;;-3.72;100.00
32083;BME280;18597;48.328;7.932;2023-12-04T05:11:02;99405.66;;;-3.70;100.00
32083;BME280;18597;48.328;7.932;2023-12-04T05:13:28;99398.59;;;-3.68;100.00
32083;BME280;18597;48.328;7.932;2023-12-04T05:15:54;99398.56;;;-3.67;100.00
32083;BME280;18597;48.328;7.932;2023-12-04T05:18:19;99394.38;;;-3.72;100.00
32083;BME280;18597;48.328;7.932;2023-12-04T05:20:45;99393.22;;;-3.64;100.00
32083;BME280;18597;48.328;7.932;2023-12-04T05:23:11;99392.63;;;-3.72;100.00
32083;BME280;18597;48.328;7.932;2023-12-04T05:25:37;99395.94;;;-3.67;100.00
32083;BME280;18597;48.328;7.932;2023-12-04T05:28:04;99390.53;;;-3.60;100.00
32083;BME280;18597;48.328;7.932;2023-12-04T05:30:30;99390.66;;;-3.65;100.00
32083;BME280;18597;48.328;7.932;2023-12-04T05:32:56;99384.59;;;-3.66;100.00
32083;BME280;18597;48.328;7.932;2023-12-04T05:35:22;99387.19;;;-3.66;100.00
32083;BME280;18597;48.328;7.932;2023-12-04T05:37:48;99384.75;;;-3.70;100.00
32083;BME280;18597;48.328;7.932;2023-12-04T05:40:14;99380.41;;;-3.71;100.00
32083;BME280;18597;48.328;7.932;2023-12-04T05:42:40;99375.00;;;-3.65;100.00
32083;BME280;18597;48.328;7.932;2023-12-04T05:45:06;99374.69;;;-3.56;100.00
32083;BME280;18597;48.328;7.932;2023-12-04T05:47:33;99364.22;;;-3.54;100.00
32083;BME280;18597;48.328;7.932;2023-12-04T05:50:00;99355.53;;;-3.55;100.00
32083;BME280;18597;48.328;7.932;2023-12-04T05:52:26;99349.16;;;-3.46;100.00
32083;BME280;18597;48.328;7.932;2023-12-04T05:54:52;99337.94;;;-3.50;100.00
32083;BME280;18597;48.328;7.932;2023-12-04T05:57:18;99330.66;;;-3.40;100.00
32083;BME280;18597;48.328;7.932;2023-12-04T05:59:43;99331.63;;;-3.43;100.00
32083;BME280;18597;48.328;7.932;2023-12-04T06:02:09;99320.97;;;-3.37;100.00
32083;BME280;18597;48.328;7.932;2023-12-04T06:04:35;99314.03;;;-3.38;100.00
32083;BME280;18597;48.328;7.932;2023-12-04T06:07:01;99317.31;;;-3.31;100.00
32083;BME280;18597;48.328;7.932;2023-12-04T06:09:27;99310.97;;;-3.24;100.00
32083;BME280;18597;48.328;7.932;2023-12-04T06:11:53;99312.50;;;-3.18;100.00
32083;BME280;18597;48.328;7.932;2023-12-04T06:14:18;99311.69;;;-3.20;100.00
32083;BME280;18597;48.328;7.932;2023-12-04T06:16:44;99311.06;;;-3.27;100.00
32083;BME280;18597;48.328;7.932;2023-12-04T06:19:10;99304.19;;;-3.29;100.00
32083;BME280;18597;48.328;7.932;2023-12-04T06:21:36;99303.16;;;-3.25;100.00
32083;BME280;18597;48.328;7.932;2023-12-04T06:24:02;99307.22;;;-3.17;100.00
32083;BME280;18597;48.328;7.932;2023-12-04T06:26:31;99300.06;;;-3.12;100.00
32083;BME280;18597;48.328;7.932;2023-12-04T06:28:57;99302.41;;;-3.04;100.00
32083;BME280;18597;48.328;7.932;2023-12-04T06:31:23;99309.34;;;-3.03;100.00
32083;BME280;18597;48.328;7.932;2023-12-04T06:33:49;99306.91;;;-3.08;100.00
32083;BME280;18597;48.328;7.932;2023-12-04T06:36:17;99313.63;;;-3.00;100.00
32083;BME280;18597;48.328;7.932;2023-12-04T06:38:47;99329.38;;;-3.03;100.00
32083;BME280;18597;48.328;7.932;2023-12-04T06:41:15;99329.09;;;-2.94;100.00
32083;BME280;18597;48.328;7.932;2023-12-04T06:43:41;99322.91;;;-2.92;100.00
32083;BME280;18597;48.328;7.932;2023-12-04T06:46:08;99315.00;;;-2.90;100.00
32083;BME280;18597;48.328;7.932;2023-12-04T06:48:34;99322.13;;;-2.95;100.00
32083;BME280;18597;48.328;7.932;2023-12-04T06:51:00;99339.72;;;-2.75;100.00
32083;BME280;18597;48.328;7.932;2023-12-04T06:53:26;99329.16;;;-2.72;100.00
32083;BME280;18597;48.328;7.932;2023-12-04T06:55:51;99325.88;;;-2.77;100.00
32083;BME280;18597;48.328;7.932;2023-12-04T06:58:17;99319.31;;;-2.66;100.00
32083;BME280;18597;48.328;7.932;2023-12-04T07:00:43;99325.59;;;-2.70;100.00
32083;BME280;18597;48.328;7.932;2023-12-04T07:03:09;99320.41;;;-2.71;100.00
32083;BME280;18597;48.328;7.932;2023-12-04T07:05:35;99327.41;;;-2.72;100.00
32083;BME280;18597;48.328;7.932;2023-12-04T07:08:01;99316.91;;;-2.47;100.00
32083;BME280;18597;48.328;7.932;2023-12-04T07:10:26;99321.66;;;-2.58;100.00
32083;BME280;18597;48.328;7.932;2023-12-04T07:12:52;99320.81;;;-2.59;100.00
32083;BME280;18597;48.328;7.932;2023-12-04T07:15:18;99317.41;;;-2.61;100.00
32083;BME280;18597;48.328;7.932;2023-12-04T07:17:44;99306.81;;;-2.58;100.00
32083;BME280;18597;48.328;7.932;2023-12-04T07:20:10;99295.34;;;-2.54;100.00
32083;BME280;18597;48.328;7.932;2023-12-04T07:22:37;99285.31;;;-2.42;100.00
32083;BME280;18597;48.328;7.932;2023-12-04T07:25:03;99273.66;;;-2.34;100.00
32083;BME280;18597;48.328;7.932;2023-12-04T07:27:29;99263.66;;;-2.46;100.00
32083;BME280;18597;48.328;7.932;2023-12-04T07:29:55;99260.00;;;-2.42;100.00
32083;BME280;18597;48.328;7.932;2023-12-04T07:32:21;99250.66;;;-2.47;100.00
32083;BME280;18597;48.328;7.932;2023-12-04T07:34:46;99254.03;;;-2.45;100.00
32083;BME280;18597;48.328;7.932;2023-12-04T07:37:12;99241.75;;;-2.43;100.00
32083;BME280;18597;48.328;7.932;2023-12-04T07:39:38;99249.66;;;-2.45;100.00
32083;BME280;18597;48.328;7.932;2023-12-04T07:42:04;99243.13;;;-2.33;100.00
32083;BME280;18597;48.328;7.932;2023-12-04T07:44:30;99232.59;;;-2.32;100.00
32083;BME280;18597;48.328;7.932;2023-12-04T07:46:56;99227.16;;;-2.27;100.00
32083;BME280;18597;48.328;7.932;2023-12-04T07:49:22;99229.06;;;-2.31;100.00
32083;BME280;18597;48.328;7.932;2023-12-04T07:51:48;99223.22;;;-2.15;100.00
32083;BME280;18597;48.328;7.932;2023-12-04T07:54:14;99211.44;;;-2.05;100.00
32083;BME280;18597;48.328;7.932;2023-12-04T07:56:40;99217.66;;;-2.08;100.00
32083;BME280;18597;48.328;7.932;2023-12-04T07:59:06;99208.34;;;-2.15;100.00
32083;BME280;18597;48.328;7.932;2023-12-04T08:01:31;99219.72;;;-1.94;100.00
32083;BME280;18597;48.328;7.932;2023-12-04T08:03:57;99210.81;;;-1.90;100.00
32083;BME280;18597;48.328;7.932;2023-12-04T08:06:23;99214.28;;;-1.89;100.00
32083;BME280;18597;48.328;7.932;2023-12-04T08:08:49;99213.38;;;-1.88;100.00
32083;BME280;18597;48.328;7.932;2023-12-04T08:11:14;99221.03;;;-1.84;100.00
32083;BME280;18597;48.328;7.932;2023-12-04T08:13:40;99220.72;;;-1.76;100.00
32083;BME280;18597;48.328;7.932;2023-12-04T08:16:14;99227.63;;;-1.74;100.00
32083;BME280;18597;48.328;7.932;2023-12-04T08:18:41;99247.44;;;-1.68;100.00
32083;BME280;18597;48.328;7.932;2023-12-04T08:21:08;99240.94;;;-1.59;100.00
32083;BME280;18597;48.328;7.932;2023-12-04T08:23:34;99245.16;;;-1.55;100.00
32083;BME280;18597;48.328;7.932;2023-12-04T08:26:00;99236.19;;;-1.50;100.00
32083;BME280;18597;48.328;7.932;2023-12-04T08:28:26;99240.59;;;-1.50;100.00
32083;BME280;18597;48.328;7.932;2023-12-04T08:30:52;99242.06;;;-1.24;100.00
32083;BME280;18597;48.328;7.932;2023-12-04T08:33:18;99240.78;;;-1.34;100.00
32083;BME280;18597;48.328;7.932;2023-12-04T08:35:46;99238.41;;;-1.41;100.00
32083;BME280;18597;48.328;7.932;2023-12-04T08:38:12;99238.16;;;-1.34;100.00
32083;BME280;18597;48.328;7.932;2023-12-04T08:40:38;99240.97;;;-1.19;100.00
32083;BME280;18597;48.328;7.932;2023-12-04T08:43:05;99247.81;;;-1.16;100.00
32083;BME280;18597;48.328;7.932;2023-12-04T08:45:31;99244.22;;;-1.14;100.00
32083;BME280;18597;48.328;7.932;2023-12-04T08:47:57;99258.03;;;-1.10;100.00
32083;BME280;18597;48.328;7.932;2023-12-04T08:50:22;99275.06;;;-1.00;100.00
32083;BME280;18597;48.328;7.932;2023-12-04T08:52:50;99268.03;;;-0.99;100.00
32083;BME280;18597;48.328;7.932;2023-12-04T08:55:17;99270.63;;;-0.98;100.00
32083;BME280;18597;48.328;7.932;2023-12-04T08:57:43;99258.94;;;-0.91;100.00
32083;BME280;18597;48.328;7.932;2023-12-04T09:00:09;99257.59;;;-0.80;100.00
32083;BME280;18597;48.328;7.932;2023-12-04T09:02:35;99249.75;;;-1.01;100.00
32083;BME280;18597;48.328;7.932;2023-12-04T09:05:02;99237.25;;;-1.15;100.00
32083;BME280;18597;48.328;7.932;2023-12-04T09:07:27;99247.75;;;-1.15;100.00
32083;BME280;18597;48.328;7.932;2023-12-04T09:09:53;99254.31;;;-1.04;100.00
32083;BME280;18597;48.328;7.932;2023-12-04T09:12:19;99256.13;;;-1.06;100.00
32083;BME280;18597;48.328;7.932;2023-12-04T09:14:45;99251.03;;;-1.30;100.00
32083;BME280;18597;48.328;7.932;2023-12-04T09:17:11;99239.19;;;-1.38;100.00
32083;BME280;18597;48.328;7.932;2023-12-04T09:19:36;99220.19;;;-1.44;100.00
32083;BME280;18597;48.328;7.932;2023-12-04T09:22:02;99236.38;;;-1.34;100.00
32083;BME280;18597;48.328;7.932;2023-12-04T09:24:28;99222.69;;;-1.20;100.00
32083;BME280;18597;48.328;7.932;2023-12-04T09:26:54;99227.00;;;-1.19;100.00
32083;BME280;18597;48.328;7.932;2023-12-04T09:29:20;99210.78;;;-1.08;100.00
32083;BME280;18597;48.328;7.932;2023-12-04T09:31:51;99205.19;;;-1.01;100.00
32083;BME280;18597;48.328;7.932;2023-12-04T09:34:17;99197.34;;;-0.82;100.00
32083;BME280;18597;48.328;7.932;2023-12-04T09:36:43;99189.97;;;-0.74;100.00
32083;BME280;18597;48.328;7.932;2023-12-04T09:39:09;99204.50;;;-0.67;100.00
32083;BME280;18597;48.328;7.932;2023-12-04T09:41:37;99199.88;;;-0.62;100.00
32083;BME280;18597;48.328;7.932;2023-12-04T09:44:03;99199.59;;;-0.56;100.00
32083;BME280;18597;48.328;7.932;2023-12-04T09:46:30;99207.69;;;-0.41;100.00
32083;BME280;18597;48.328;7.932;2023-12-04T09:48:56;99206.94;;;-0.26;100.00
32083;BME280;18597;48.328;7.932;2023-12-04T09:51:23;99215.22;;;-0.16;100.00
32083;BME280;18597;48.328;7.932;2023-12-04T09:53:51;99220.28;;;0.06;100.00
32083;BME280;18597;48.328;7.932;2023-12-04T09:56:18;99222.81;;;0.07;100.00
32083;BME280;18597;48.328;7.932;2023-12-04T09:58:45;99214.34;;;0.19;100.00
32083;BME280;18597;48.328;7.932;2023-12-04T10:01:12;99218.53;;;0.23;100.00
32083;BME280;18597;48.328;7.932;2023-12-04T10:03:38;99208.03;;;0.23;100.00
32083;BME280;18597;48.328;7.932;2023-12-04T10:06:06;99204.09;;;0.32;100.00
32083;BME280;18597;48.328;7.932;2023-12-04T10:08:33;99195.94;;;0.37;100.00
32083;BME280;18597;48.328;7.932;2023-12-04T10:10:59;99207.84;;;0.44;100.00
32083;BME280;18597;48.328;7.932;2023-12-04T10:13:27;99202.16;;;0.53;100.00
32083;BME280;18597;48.328;7.932;2023-12-04T10:15:53;99192.41;;;0.55;100.00
32083;BME280;18597;48.328;7.932;2023-12-04T10:18:27;99190.34;;;0.60;100.00
32083;BME280;18597;48.328;7.932;2023-12-04T10:20:55;99174.88;;;0.71;100.00
32083;BME280;18597;48.328;7.932;2023-12-04T10:23:21;99178.13;;;0.76;100.00
32083;BME280;18597;48.328;7.932;2023-12-04T10:25:49;99169.13;;;0.80;100.00
32083;BME280;18597;48.328;7.932;2023-12-04T10:28:18;99172.91;;;0.92;100.00
32083;BME280;18597;48.328;7.932;2023-12-04T10:30:45;99162.22;;;0.95;100.00
32083;BME280;18597;48.328;7.932;2023-12-04T10:33:12;99157.56;;;1.00;100.00
32083;BME280;18597;48.328;7.932;2023-12-04T10:35:38;99155.94;;;0.98;100.00
32083;BME280;18597;48.328;7.932;2023-12-04T10:38:06;99150.44;;;1.02;100.00
32083;BME280;18597;48.328;7.932;2023-12-04T10:40:34;99144.00;;;1.08;100.00
32083;BME280;18597;48.328;7.932;2023-12-04T10:43:21;99142.78;;;0.98;100.00
32083;BME280;18597;48.328;7.932;2023-12-04T10:45:49;99138.28;;;0.84;100.00
32083;BME280;18597;48.328;7.932;2023-12-04T10:48:18;99136.47;;;0.69;100.00
32083;BME280;18597;48.328;7.932;2023-12-04T10:50:46;99135.28;;;0.41;100.00
32083;BME280;18597;48.328;7.932;2023-12-04T10:53:14;99129.97;;;0.25;100.00
32083;BME280;18597;48.328;7.932;2023-12-04T10:55:41;99129.56;;;0.33;100.00
32083;BME280;18597;48.328;7.932;2023-12-04T10:58:12;99116.97;;;0.40;100.00
32083;BME280;18597;48.328;7.932;2023-12-04T11:00:46;99106.16;;;0.28;100.00
32083;BME280;18597;48.328;7.932;2023-12-04T11:03:25;99095.97;;;0.22;100.00
32083;BME280;18597;48.328;7.932;2023-12-04T11:05:59;99087.38;;;0.36;100.00
32083;BME280;18597;48.328;7.932;2023-12-04T11:08:29;99077.25;;;0.46;100.00
32083;BME280;18597;48.328;7.932;2023-12-04T11:11:02;99065.63;;;0.66;100.00
32083;BME280;18597;48.328;7.932;2023-12-04T11:13:34;99059.19;;;0.55;100.00
32083;BME280;18597;48.328;7.932;2023-12-04T11:18:44;99052.69;;;0.78;100.00
32083;BME280;18597;48.328;7.932;2023-12-04T11:21:13;99046.16;;;0.70;100.00
32083;BME280;18597;48.328;7.932;2023-12-04T11:23:42;99043.19;;;0.76;100.00
32083;BME280;18597;48.328;7.932;2023-12-04T11:26:09;99033.69;;;0.89;100.00
32083;BME280;18597;48.328;7.932;2023-12-04T11:28:36;99034.09;;;0.81;100.00
32083;BME280;18597;48.328;7.932;2023-12-04T11:31:05;99025.28;;;0.82;100.00
32083;BME280;18597;48.328;7.932;2023-12-04T11:33:36;99013.16;;;0.80;100.00
32083;BME280;18597;48.328;7.932;2023-12-04T11:36:12;99014.34;;;0.90;100.00
32083;BME280;18597;48.328;7.932;2023-12-04T11:38:45;99014.75;;;0.82;100.00
32083;BME280;18597;48.328;7.932;2023-12-04T11:41:21;99006.38;;;0.92;100.00
32083;BME280;18597;48.328;7.932;2023-12-04T11:43:48;99006.50;;;1.04;100.00
32083;BME280;18597;48.328;7.932;2023-12-04T11:46:25;99006.03;;;1.14;100.00
32083;BME280;18597;48.328;7.932;2023-12-04T11:48:56;98985.19;;;0.63;100.00
32083;BME280;18597;48.328;7.932;2023-12-04T11:54:21;98971.78;;;0.83;100.00
32083;BME280;18597;48.328;7.932;2023-12-04T11:59:49;98964.44;;;1.04;100.00
32083;BME280;18597;48.328;7.932;2023-12-04T12:02:15;98956.19;;;1.10;100.00
32083;BME280;18597;48.328;7.932;2023-12-04T12:04:42;98952.91;;;1.07;100.00
32083;BME280;18597;48.328;7.932;2023-12-04T12:07:08;98953.47;;;1.12;100.00
32083;BME280;18597;48.328;7.932;2023-12-04T12:09:35;98947.84;;;1.18;100.00
32083;BME280;18597;48.328;7.932;2023-12-04T12:12:02;98939.66;;;1.08;100.00
32083;BME280;18597;48.328;7.932;2023-12-04T12:14:29;98938.38;;;1.16;100.00
32083;BME280;18597;48.328;7.932;2023-12-04T12:16:57;98929.69;;;1.29;100.00
32083;BME280;18597;48.328;7.932;2023-12-04T12:19:23;98937.63;;;1.28;100.00
32083;BME280;18597;48.328;7.932;2023-12-04T12:21:49;98930.91;;;1.08;100.00
32083;BME280;18597;48.328;7.932;2023-12-04T12:24:18;98922.84;;;1.11;100.00
32083;BME280;18597;48.328;7.932;2023-12-04T12:26:44;98920.00;;;1.30;100.00
32083;BME280;18597;48.328;7.932;2023-12-04T12:29:11;98903.91;;;1.34;100.00
32083;BME280;18597;48.328;7.932;2023-12-04T12:31:37;98908.81;;;1.41;100.00
32083;BME280;18597;48.328;7.932;2023-12-04T12:34:03;98904.22;;;1.30;100.00
32083;BME280;18597;48.328;7.932;2023-12-04T12:36:29;98900.84;;;1.56;100.00
32083;BME280;18597;48.328;7.932;2023-12-04T12:39:00;98896.44;;;1.57;100.00
32083;BME280;18597;48.328;7.932;2023-12-04T12:41:26;98890.59;;;1.37;100.00
32083;BME280;18597;48.328;7.932;2023-12-04T12:43:52;98884.38;;;1.38;100.00
32083;BME280;18597;48.328;7.932;2023-12-04T12:46:19;98882.72;;;1.52;100.00
32083;BME280;18597;48.328;7.932;2023-12-04T12:48:47;98882.97;;;1.33;100.00
32083;BME280;18597;48.328;7.932;2023-12-04T12:51:13;98876.06;;;1.16;100.00
32083;BME280;18597;48.328;7.932;2023-12-04T12:53:39;98874.34;;;1.01;100.00
32083;BME280;18597;48.328;7.932;2023-12-04T12:56:05;98867.66;;;0.95;100.00
32083;BME280;18597;48.328;7.932;2023-12-04T12:58:32;98875.63;;;0.94;100.00